createdAt,value
2023-03-31T00:00:37.197Z,1.40
2023-03-31T00:03:10.113Z,1.40
2023-03-31T00:05:37.957Z,1.40
2023-03-31T00:08:04.980Z,1.40
2023-03-31T00:10:33.727Z,1.40
2023-03-31T00:13:02.035Z,1.30
2023-03-31T00:15:30.447Z,1.40
2023-03-31T00:18:00.555Z,1.40
2023-03-31T00:20:28.004Z,1.40
2023-03-31T00:22:57.606Z,1.40
2023-03-31T00:25:24.660Z,1.40
2023-03-31T00:27:52.829Z,1.40
2023-03-31T00:30:19.840Z,1.40
2023-03-31T00:32:47.257Z,1.40
2023-03-31T00:35:14.267Z,1.40
2023-03-31T00:37:43.349Z,1.40
2023-03-31T00:40:10.887Z,1.40
2023-03-31T00:42:44.491Z,1.40
2023-03-31T00:45:27.633Z,1.40
2023-03-31T00:47:57.792Z,1.40
2023-03-31T00:50:29.206Z,1.40
2023-03-31T00:53:01.371Z,1.40
2023-03-31T00:55:39.265Z,1.30
2023-03-31T00:58:07.001Z,1.30
2023-03-31T01:00:33.920Z,1.40
2023-03-31T01:03:05.431Z,1.40
2023-03-31T01:05:57.867Z,1.40
2023-03-31T01:08:27.580Z,1.40
2023-03-31T01:11:04.432Z,1.40
2023-03-31T01:13:32.125Z,1.40
2023-03-31T01:15:59.046Z,1.40
2023-03-31T01:18:28.080Z,1.40
2023-03-31T01:21:23.354Z,1.40
2023-03-31T01:24:05.240Z,1.40
2023-03-31T01:26:41.954Z,1.40
2023-03-31T01:29:47.831Z,1.30
2023-03-31T01:32:45.101Z,1.40
2023-03-31T01:35:31.207Z,1.40
2023-03-31T01:38:01.284Z,1.40
2023-03-31T01:40:58.921Z,1.40
2023-03-31T01:43:44.529Z,1.40
2023-03-31T01:46:37.837Z,1.40
2023-03-31T01:49:07.558Z,1.40
2023-03-31T01:51:39.606Z,1.40
2023-03-31T01:54:24.345Z,1.40
2023-03-31T01:57:13.366Z,1.40
2023-03-31T02:00:09.637Z,1.40
2023-03-31T02:02:42.290Z,1.40
2023-03-31T02:05:22.995Z,1.40
2023-03-31T02:07:55.328Z,1.40
2023-03-31T02:10:25.240Z,1.40
2023-03-31T02:12:53.217Z,1.40
2023-03-31T02:15:24.448Z,1.30
2023-03-31T02:17:56.416Z,1.30
2023-03-31T02:20:24.490Z,1.30
2023-03-31T02:22:55.733Z,1.30
2023-03-31T02:25:27.728Z,1.40
2023-03-31T02:28:00.225Z,1.40
2023-03-31T02:30:38.980Z,1.40
2023-03-31T02:33:06.038Z,1.40
2023-03-31T02:35:35.201Z,1.40
2023-03-31T02:38:02.514Z,1.40
2023-03-31T02:40:30.881Z,1.40
2023-03-31T02:42:57.952Z,1.40
2023-03-31T02:45:47.961Z,1.50
2023-03-31T02:48:28.429Z,1.40
2023-03-31T02:51:08.550Z,1.40
2023-03-31T02:53:53.986Z,1.40
2023-03-31T02:56:42.887Z,1.40
2023-03-31T02:59:16.658Z,1.50
2023-03-31T03:01:55.732Z,1.40
2023-03-31T03:04:59.391Z,1.40
2023-03-31T03:07:32.955Z,1.40
2023-03-31T03:10:23.661Z,1.50
2023-03-31T03:12:55.932Z,1.50
2023-03-31T03:15:32.472Z,1.50
2023-03-31T03:17:59.620Z,1.40
2023-03-31T03:20:26.679Z,1.40
2023-03-31T03:22:53.647Z,1.50
2023-03-31T03:25:20.908Z,1.50
2023-03-31T03:27:48.218Z,1.50
2023-03-31T03:30:15.327Z,1.50
2023-03-31T03:32:43.040Z,1.50
2023-03-31T03:35:10.782Z,1.40
2023-03-31T03:37:38.321Z,1.40
2023-03-31T03:40:06.339Z,1.50
2023-03-31T03:42:34.581Z,1.50
2023-03-31T03:45:02.021Z,1.50
2023-03-31T03:47:29.141Z,1.40
2023-03-31T03:49:56.488Z,1.40
2023-03-31T03:52:23.467Z,1.40
2023-03-31T03:54:50.618Z,1.40
2023-03-31T03:57:17.553Z,1.40
2023-03-31T03:59:44.564Z,1.40
2023-03-31T04:02:11.761Z,1.40
2023-03-31T04:04:38.773Z,1.50
2023-03-31T04:07:06.110Z,1.40
2023-03-31T04:09:33.092Z,1.40
2023-03-31T04:12:00.737Z,1.50
2023-03-31T04:14:27.681Z,1.50
2023-03-31T04:16:56.582Z,1.50
2023-03-31T04:19:26.102Z,1.50
2023-03-31T04:21:58.970Z,1.40
2023-03-31T04:24:30.791Z,1.40
2023-03-31T04:26:58.529Z,1.40
2023-03-31T04:29:26.829Z,1.40
2023-03-31T04:31:58.881Z,1.40
2023-03-31T04:34:34.887Z,1.40
2023-03-31T04:37:02.921Z,1.40
2023-03-31T04:39:31.180Z,1.40
2023-03-31T04:41:59.627Z,1.40
2023-03-31T04:44:27.349Z,1.40
2023-03-31T04:46:54.914Z,1.50
2023-03-31T04:49:22.099Z,1.40
2023-03-31T04:51:49.096Z,1.40
2023-03-31T04:54:16.259Z,1.40
2023-03-31T04:56:43.234Z,1.40
2023-03-31T04:59:11.176Z,1.40
2023-03-31T05:01:38.246Z,1.40
2023-03-31T05:04:05.985Z,1.40
2023-03-31T05:06:33.582Z,1.40
2023-03-31T05:09:00.638Z,1.40
2023-03-31T05:11:29.082Z,1.50
2023-03-31T05:13:56.056Z,1.40
2023-03-31T05:16:23.096Z,1.50
2023-03-31T05:18:50.163Z,1.50
2023-03-31T05:21:19.965Z,1.40
2023-03-31T05:23:47.118Z,1.50
2023-03-31T05:26:14.489Z,1.50
2023-03-31T05:28:42.017Z,1.50
2023-03-31T05:31:09.888Z,1.50
2023-03-31T05:33:41.850Z,1.50
2023-03-31T05:36:18.525Z,1.40
2023-03-31T05:38:46.052Z,1.50
2023-03-31T05:41:12.936Z,1.50
2023-03-31T05:43:40.183Z,1.50
2023-03-31T05:46:08.169Z,1.50
2023-03-31T05:48:37.440Z,1.50
2023-03-31T05:51:04.778Z,1.60
2023-03-31T05:53:31.691Z,1.60
2023-03-31T05:56:00.280Z,1.60
2023-03-31T05:58:27.512Z,1.60
2023-03-31T06:01:13.053Z,1.70
2023-03-31T06:03:41.920Z,1.70
2023-03-31T06:06:13.030Z,1.80
2023-03-31T06:08:40.083Z,1.80
2023-03-31T06:11:08.890Z,1.80
2023-03-31T06:13:36.769Z,1.90
2023-03-31T06:16:04.173Z,1.90
2023-03-31T06:18:33.293Z,1.90
2023-03-31T06:21:00.811Z,2.00
2023-03-31T06:23:27.716Z,1.90
2023-03-31T06:25:55.129Z,1.90
2023-03-31T06:28:22.142Z,1.90
2023-03-31T06:30:49.075Z,2.00
2023-03-31T06:33:16.647Z,2.00
2023-03-31T06:35:43.586Z,2.10
2023-03-31T06:38:10.861Z,2.10
2023-03-31T06:40:37.809Z,2.10
2023-03-31T06:43:04.778Z,2.00
2023-03-31T06:45:31.699Z,2.00
2023-03-31T06:47:58.873Z,2.00
2023-03-31T06:50:25.833Z,2.00
2023-03-31T06:52:55.165Z,2.00
2023-03-31T06:55:22.148Z,2.00
2023-03-31T06:57:49.041Z,2.00
2023-03-31T07:00:16.598Z,2.10
2023-03-31T07:02:43.639Z,2.10
2023-03-31T07:05:10.772Z,2.10
2023-03-31T07:07:37.713Z,2.10
2023-03-31T07:10:04.975Z,2.10
2023-03-31T07:12:34.020Z,2.20
2023-03-31T07:15:01.158Z,2.20
2023-03-31T07:17:28.064Z,2.20
2023-03-31T07:19:55.057Z,2.20
2023-03-31T07:22:21.974Z,2.20
2023-03-31T07:24:48.860Z,2.30
2023-03-31T07:27:15.860Z,2.30
2023-03-31T07:29:42.777Z,2.30
2023-03-31T07:32:09.916Z,2.30
2023-03-31T07:34:37.811Z,2.20
2023-03-31T07:37:04.926Z,2.10
2023-03-31T07:39:31.831Z,2.10
2023-03-31T07:41:58.779Z,2.10
2023-03-31T07:44:26.266Z,2.00
2023-03-31T07:46:53.212Z,2.00
2023-03-31T07:49:20.424Z,2.00
2023-03-31T07:51:47.395Z,2.10
2023-03-31T07:54:14.264Z,2.10
2023-03-31T07:56:41.466Z,2.20
2023-03-31T07:59:08.414Z,2.20
2023-03-31T08:01:35.403Z,2.20
2023-03-31T08:04:02.570Z,2.20
2023-03-31T08:06:30.084Z,2.20
2023-03-31T08:08:58.046Z,2.30
2023-03-31T08:11:26.376Z,2.30
2023-03-31T08:13:53.356Z,2.40
2023-03-31T08:16:20.418Z,2.40
2023-03-31T08:18:47.698Z,2.40
2023-03-31T08:21:14.638Z,2.40
2023-03-31T08:23:41.514Z,2.50
2023-03-31T08:26:19.662Z,2.60
2023-03-31T08:28:49.114Z,2.70
2023-03-31T08:31:17.577Z,2.80
2023-03-31T08:33:45.679Z,2.90
2023-03-31T08:36:13.609Z,3.00
2023-03-31T08:38:42.503Z,3.10
2023-03-31T08:41:27.597Z,3.20
2023-03-31T08:43:58.705Z,3.20
2023-03-31T08:46:29.644Z,3.30
2023-03-31T08:48:58.905Z,3.40
2023-03-31T08:51:29.524Z,3.40
2023-03-31T08:54:21.746Z,3.40
2023-03-31T08:56:50.892Z,3.30
2023-03-31T08:59:29.668Z,3.50
2023-03-31T09:01:59.352Z,3.50
2023-03-31T09:04:32.348Z,3.50
2023-03-31T09:07:29.793Z,3.40
2023-03-31T09:09:59.715Z,3.20
2023-03-31T09:13:01.583Z,3.30
2023-03-31T09:15:41.814Z,3.20
2023-03-31T09:18:36.653Z,3.10
2023-03-31T09:21:21.151Z,3.10
2023-03-31T09:24:03.085Z,3.10
2023-03-31T09:26:34.851Z,3.20
2023-03-31T09:29:04.312Z,3.30
2023-03-31T09:31:32.817Z,3.50
2023-03-31T09:34:02.121Z,3.50
2023-03-31T09:36:29.197Z,3.50
2023-03-31T09:38:56.216Z,3.60
2023-03-31T09:41:23.191Z,3.70
2023-03-31T09:43:51.449Z,3.70
2023-03-31T09:46:27.163Z,3.70
2023-03-31T09:49:14.529Z,3.70
2023-03-31T09:51:49.031Z,3.70
2023-03-31T09:54:24.842Z,3.80
2023-03-31T09:56:55.569Z,3.80
2023-03-31T09:59:30.014Z,3.90
2023-03-31T10:02:00.608Z,3.90
2023-03-31T10:04:32.491Z,4.00
2023-03-31T10:07:01.546Z,4.20
2023-03-31T10:09:31.701Z,4.40
2023-03-31T10:12:04.709Z,4.50
2023-03-31T10:14:41.848Z,4.60
2023-03-31T10:17:19.605Z,4.80
2023-03-31T10:19:52.785Z,4.80
2023-03-31T10:22:22.469Z,4.80
2023-03-31T10:24:51.574Z,4.80
2023-03-31T10:27:23.332Z,4.90
2023-03-31T10:30:12.207Z,5.00
2023-03-31T10:32:43.342Z,4.90
2023-03-31T10:35:36.567Z,5.00
2023-03-31T10:38:12.212Z,5.00
2023-03-31T10:40:49.546Z,5.10
2023-03-31T10:43:18.157Z,5.20
2023-03-31T10:45:52.320Z,5.10
2023-03-31T10:48:39.929Z,5.30
2023-03-31T10:51:19.716Z,5.30
2023-03-31T10:53:52.109Z,5.20
2023-03-31T10:56:35.390Z,5.00
2023-03-31T10:59:30.919Z,5.20
2023-03-31T11:02:30.162Z,5.40
2023-03-31T11:05:25.464Z,5.60
2023-03-31T11:07:52.407Z,5.60
2023-03-31T11:10:28.666Z,5.60
2023-03-31T11:13:20.473Z,5.60
2023-03-31T11:15:53.354Z,5.60
2023-03-31T11:18:38.837Z,5.60
2023-03-31T11:21:20.658Z,5.80
2023-03-31T11:23:53.809Z,6.10
2023-03-31T11:26:42.010Z,6.40
2023-03-31T11:29:26.681Z,6.50
2023-03-31T11:32:05.550Z,6.80
2023-03-31T11:35:04.907Z,6.90
2023-03-31T11:37:46.551Z,7.10
2023-03-31T11:40:59.758Z,7.00
2023-03-31T11:43:41.904Z,6.90
2023-03-31T11:46:20.799Z,6.80
2023-03-31T11:49:04.092Z,6.90
2023-03-31T11:51:55.891Z,7.10
2023-03-31T11:54:41.748Z,7.00
2023-03-31T11:57:25.180Z,6.90
2023-03-31T12:00:10.496Z,6.70
2023-03-31T12:03:00.085Z,6.90
2023-03-31T12:05:30.782Z,7.20
2023-03-31T12:08:13.792Z,7.30
2023-03-31T12:11:11.615Z,7.40
2023-03-31T12:13:52.473Z,7.70
2023-03-31T12:16:28.768Z,7.90
2023-03-31T12:19:32.557Z,8.10
2023-03-31T12:22:22.418Z,8.10
2023-03-31T12:24:51.277Z,8.20
2023-03-31T12:27:25.190Z,8.60
2023-03-31T12:29:58.183Z,8.70
2023-03-31T12:32:32.680Z,8.50
2023-03-31T12:35:05.575Z,8.70
2023-03-31T12:38:03.801Z,8.70
2023-03-31T12:41:02.736Z,8.80
2023-03-31T12:44:01.870Z,8.80
2023-03-31T12:47:01.370Z,8.70
2023-03-31T12:50:04.674Z,8.90
2023-03-31T12:52:37.374Z,8.60
2023-03-31T12:55:30.639Z,8.10
2023-03-31T12:58:34.901Z,8.10
2023-03-31T13:01:08.371Z,8.00
2023-03-31T13:03:36.896Z,7.90
2023-03-31T13:06:05.860Z,8.00
2023-03-31T13:08:56.124Z,7.80
2023-03-31T13:11:52.342Z,7.70
2023-03-31T13:14:39.055Z,7.50
2023-03-31T13:17:31.661Z,7.50
2023-03-31T13:20:27.922Z,7.50
2023-03-31T13:23:22.535Z,7.60
2023-03-31T13:25:51.314Z,7.40
2023-03-31T13:28:26.016Z,7.10
2023-03-31T13:30:54.870Z,6.80
2023-03-31T13:33:43.059Z,6.70
2023-03-31T13:36:43.993Z,6.70
2023-03-31T13:39:28.935Z,6.60
2023-03-31T13:42:06.251Z,6.60
2023-03-31T13:44:55.599Z,6.60
2023-03-31T13:47:34.590Z,6.80
2023-03-31T13:50:36.241Z,6.90
2023-03-31T13:53:17.914Z,6.80
2023-03-31T13:55:47.867Z,6.70
2023-03-31T13:58:33.726Z,6.50
2023-03-31T14:01:03.380Z,6.30
2023-03-31T14:03:55.684Z,6.30
2023-03-31T14:06:39.859Z,6.30
2023-03-31T14:09:15.627Z,6.20
2023-03-31T14:11:42.528Z,6.10
2023-03-31T14:14:17.779Z,6.20
2023-03-31T14:16:52.300Z,6.10
2023-03-31T14:19:43.526Z,6.00
2023-03-31T14:22:22.517Z,6.10
2023-03-31T14:25:21.401Z,6.00
2023-03-31T14:28:13.775Z,6.00
2023-03-31T14:31:03.042Z,6.00
2023-03-31T14:34:09.598Z,5.80
2023-03-31T14:36:47.936Z,5.80
2023-03-31T14:39:21.709Z,5.70
2023-03-31T14:41:59.299Z,5.50
2023-03-31T14:44:27.053Z,5.50
2023-03-31T14:46:58.303Z,5.40
2023-03-31T14:49:28.355Z,5.30
2023-03-31T14:52:00.404Z,5.20
2023-03-31T14:54:27.417Z,5.10
2023-03-31T14:56:58.399Z,5.10
2023-03-31T14:59:30.305Z,5.10
2023-03-31T15:01:59.325Z,5.20
2023-03-31T15:04:41.437Z,5.10
2023-03-31T15:07:09.891Z,5.10
2023-03-31T15:09:37.492Z,5.10
2023-03-31T15:12:08.682Z,5.20
2023-03-31T15:14:40.946Z,5.10
2023-03-31T15:17:28.715Z,5.00
2023-03-31T15:19:57.937Z,5.10
2023-03-31T15:22:27.616Z,5.00
2023-03-31T15:24:55.538Z,4.90
2023-03-31T15:27:39.299Z,4.80
2023-03-31T15:30:16.847Z,4.80
2023-03-31T15:32:44.081Z,4.90
2023-03-31T15:35:37.577Z,4.80
2023-03-31T15:38:06.394Z,4.80
2023-03-31T15:40:41.287Z,4.70
2023-03-31T15:43:27.095Z,4.70
2023-03-31T15:45:56.140Z,4.60
2023-03-31T15:48:48.895Z,4.50
2023-03-31T15:51:25.749Z,4.40
2023-03-31T15:53:55.879Z,4.30
2023-03-31T15:56:27.171Z,4.20
2023-03-31T15:59:03.353Z,4.10
2023-03-31T16:01:46.048Z,4.00
2023-03-31T16:04:14.799Z,3.90
2023-03-31T16:06:56.809Z,3.80
2023-03-31T16:09:25.430Z,3.70
2023-03-31T16:11:56.526Z,3.60
2023-03-31T16:14:33.141Z,3.60
2023-03-31T16:17:04.688Z,3.50
2023-03-31T16:19:42.120Z,3.50
2023-03-31T16:22:17.371Z,3.40
2023-03-31T16:24:44.905Z,3.30
2023-03-31T16:27:12.123Z,3.20
2023-03-31T16:29:39.208Z,3.20
2023-03-31T16:32:08.860Z,3.20
2023-03-31T16:34:51.296Z,3.10
2023-03-31T16:37:18.252Z,3.00
2023-03-31T16:39:45.165Z,2.90
2023-03-31T16:42:12.067Z,2.90
2023-03-31T16:44:40.851Z,2.80
2023-03-31T16:47:09.455Z,2.80
2023-03-31T16:49:36.804Z,2.80
2023-03-31T16:52:05.150Z,2.70
2023-03-31T16:54:32.273Z,2.70
2023-03-31T16:56:59.192Z,2.70
2023-03-31T16:59:26.135Z,2.70
2023-03-31T17:01:53.097Z,2.60
2023-03-31T17:04:20.719Z,2.50
2023-03-31T17:06:47.634Z,2.60
2023-03-31T17:09:14.583Z,2.50
2023-03-31T17:11:41.723Z,2.50
2023-03-31T17:14:10.427Z,2.40
2023-03-31T17:16:47.351Z,2.40
2023-03-31T17:19:15.696Z,2.40
2023-03-31T17:21:43.055Z,2.30
2023-03-31T17:24:10.422Z,2.30
2023-03-31T17:26:39.322Z,2.30
2023-03-31T17:29:06.354Z,2.30
2023-03-31T17:31:33.365Z,2.10
2023-03-31T17:34:01.543Z,2.10
2023-03-31T17:36:28.532Z,2.10
2023-03-31T17:38:55.554Z,2.10
2023-03-31T17:41:22.528Z,2.00
2023-03-31T17:43:50.294Z,2.00
2023-03-31T17:46:17.878Z,1.90
2023-03-31T17:48:45.289Z,1.80
2023-03-31T17:51:15.261Z,1.80
2023-03-31T17:53:45.357Z,1.70
2023-03-31T17:56:13.208Z,1.80
2023-03-31T17:58:40.484Z,1.80
2023-03-31T18:01:08.820Z,1.70
2023-03-31T18:03:36.648Z,1.70
2023-03-31T18:06:09.551Z,1.70
2023-03-31T18:08:36.631Z,1.60
2023-03-31T18:11:05.767Z,1.70
2023-03-31T18:13:34.862Z,1.60
2023-03-31T18:16:02.814Z,1.60
2023-03-31T18:18:29.936Z,1.60
2023-03-31T18:20:57.258Z,1.50
2023-03-31T18:23:24.245Z,1.40
2023-03-31T18:25:51.764Z,1.50
2023-03-31T18:28:18.924Z,1.40
2023-03-31T18:30:47.251Z,1.40
2023-03-31T18:33:14.543Z,1.30
2023-03-31T18:35:42.164Z,1.30
2023-03-31T18:38:09.894Z,1.30
2023-03-31T18:40:37.741Z,1.30
2023-03-31T18:43:05.870Z,1.20
2023-03-31T18:45:33.034Z,1.20
2023-03-31T18:48:00.272Z,1.10
2023-03-31T18:50:27.280Z,1.10
2023-03-31T18:52:54.803Z,1.10
2023-03-31T18:55:22.496Z,1.10
2023-03-31T18:57:49.570Z,1.00
2023-03-31T19:00:17.374Z,1.00
2023-03-31T19:02:44.660Z,0.90
2023-03-31T19:05:12.299Z,0.90
2023-03-31T19:07:40.729Z,1.00
2023-03-31T19:10:08.274Z,0.80
2023-03-31T19:12:35.195Z,0.80
2023-03-31T19:15:02.397Z,0.90
2023-03-31T19:17:29.669Z,0.90
2023-03-31T19:19:56.754Z,0.80
2023-03-31T19:22:25.287Z,0.80
2023-03-31T19:24:52.354Z,0.80
2023-03-31T19:27:19.369Z,0.70
2023-03-31T19:29:46.465Z,0.70
2023-03-31T19:32:13.590Z,0.70
2023-03-31T19:34:40.554Z,0.60
2023-03-31T19:37:07.563Z,0.60
2023-03-31T19:39:34.542Z,0.50
2023-03-31T19:42:02.261Z,0.50
2023-03-31T19:44:29.526Z,0.50
2023-03-31T19:46:58.399Z,0.50
2023-03-31T19:49:25.361Z,0.50
2023-03-31T19:51:52.468Z,0.50
2023-03-31T19:54:19.384Z,0.40
2023-03-31T19:56:46.498Z,0.40
2023-03-31T19:59:13.568Z,0.30
2023-03-31T20:01:41.417Z,0.30
2023-03-31T20:04:08.835Z,0.40
2023-03-31T20:06:37.043Z,0.40
2023-03-31T20:09:06.328Z,0.30
2023-03-31T20:11:33.548Z,0.30
2023-03-31T20:14:01.221Z,0.20
2023-03-31T20:16:30.612Z,0.30
2023-03-31T20:19:00.181Z,0.20
2023-03-31T20:21:29.407Z,0.10
2023-03-31T20:23:57.280Z,0.10
2023-03-31T20:26:29.653Z,0.10
2023-03-31T20:28:58.265Z,0.00
2023-03-31T20:31:27.442Z,0.00
2023-03-31T20:33:55.572Z,0.00
2023-03-31T20:36:25.631Z,0.00
2023-03-31T20:38:53.828Z,-0.10
2023-03-31T20:41:23.906Z,-0.20
2023-03-31T20:43:50.906Z,-0.20
2023-03-31T20:46:18.576Z,-0.20
2023-03-31T20:48:48.109Z,-0.20
2023-03-31T20:51:18.230Z,-0.30
2023-03-31T20:53:48.830Z,-0.30
2023-03-31T20:56:21.711Z,-0.30
2023-03-31T20:58:49.866Z,-0.30
2023-03-31T21:01:18.393Z,-0.30
2023-03-31T21:03:46.330Z,-0.30
2023-03-31T21:06:15.041Z,-0.30
2023-03-31T21:08:45.777Z,-0.30
2023-03-31T21:11:13.792Z,-0.30
2023-03-31T21:13:41.006Z,-0.40
2023-03-31T21:16:08.214Z,-0.40
2023-03-31T21:18:37.524Z,-0.40
2023-03-31T21:21:12.277Z,-0.50
2023-03-31T21:23:39.636Z,-0.50
2023-03-31T21:26:07.658Z,-0.50
2023-03-31T21:28:36.961Z,-0.60
2023-03-31T21:31:08.597Z,-0.60
2023-03-31T21:33:37.911Z,-0.70
2023-03-31T21:36:10.079Z,-0.70
2023-03-31T21:38:37.772Z,-0.70
2023-03-31T21:41:07.037Z,-0.70
2023-03-31T21:43:34.448Z,-0.70
2023-03-31T21:46:02.012Z,-0.70
2023-03-31T21:48:29.633Z,-0.70
2023-03-31T21:51:00.432Z,-0.80
2023-03-31T21:53:30.640Z,-0.80
2023-03-31T21:55:58.235Z,-0.80
2023-03-31T21:58:28.564Z,-0.80
2023-03-31T22:01:02.123Z,-0.80
2023-03-31T22:03:29.277Z,-0.90
2023-03-31T22:05:57.237Z,-0.80
2023-03-31T22:08:25.376Z,-0.80
2023-03-31T22:10:53.255Z,-0.80
2023-03-31T22:13:21.398Z,-0.80
2023-03-31T22:15:49.043Z,-0.80
2023-03-31T22:18:17.048Z,-0.80
2023-03-31T22:20:44.999Z,-0.80
2023-03-31T22:23:12.024Z,-0.80
2023-03-31T22:25:39.067Z,-0.90
2023-03-31T22:28:07.398Z,-0.80
2023-03-31T22:30:35.017Z,-0.80
2023-03-31T22:33:02.103Z,-0.80
2023-03-31T22:35:29.527Z,-0.80
2023-03-31T22:37:56.593Z,-0.80
2023-03-31T22:40:24.048Z,-0.90
2023-03-31T22:42:51.018Z,-0.80
2023-03-31T22:45:18.008Z,-0.80
2023-03-31T22:47:44.933Z,-0.80
2023-03-31T22:50:12.147Z,-0.80
2023-03-31T22:52:39.105Z,-0.90
2023-03-31T22:55:07.256Z,-0.90
2023-03-31T22:57:34.319Z,-0.90
2023-03-31T23:00:01.265Z,-0.80
2023-03-31T23:02:28.191Z,-0.90
2023-03-31T23:04:55.412Z,-0.90
2023-03-31T23:07:22.645Z,-0.90
2023-03-31T23:09:49.565Z,-0.90
2023-03-31T23:12:16.677Z,-1.00
2023-03-31T23:14:43.564Z,-1.00
2023-03-31T23:17:10.759Z,-1.00
2023-03-31T23:19:38.825Z,-0.90
2023-03-31T23:22:06.125Z,-1.00
2023-03-31T23:24:33.365Z,-1.00
2023-03-31T23:27:00.433Z,-1.00
2023-03-31T23:29:28.060Z,-0.90
2023-03-31T23:31:55.363Z,-1.00
2023-03-31T23:34:22.295Z,-1.00
2023-03-31T23:36:49.223Z,-1.00
2023-03-31T23:39:16.177Z,-1.00
2023-03-31T23:41:43.041Z,-1.00
2023-03-31T23:44:10.025Z,-1.00
2023-03-31T23:46:38.172Z,-1.10
2023-03-31T23:49:05.187Z,-1.00
2023-03-31T23:51:32.029Z,-1.00
2023-03-31T23:53:59.050Z,-1.00
2023-03-31T23:56:28.488Z,-1.10
2023-03-31T23:58:56.211Z,-1.10
